createdAt,value
2023-03-25T00:00:18.216Z,21.51
2023-03-25T00:03:04.440Z,21.50
2023-03-25T00:05:51.249Z,21.50
2023-03-25T00:08:37.411Z,21.49
2023-03-25T00:11:23.435Z,21.49
2023-03-25T00:14:09.016Z,21.49
2023-03-25T00:16:54.757Z,21.49
2023-03-25T00:19:41.494Z,21.50
2023-03-25T00:22:27.294Z,21.47
2023-03-25T00:25:20.376Z,21.49
2023-03-25T00:28:05.603Z,21.49
2023-03-25T00:30:52.606Z,21.48
2023-03-25T00:33:37.780Z,21.49
2023-03-25T00:36:22.903Z,21.48
2023-03-25T00:39:08.616Z,21.48
2023-03-25T00:41:54.460Z,21.48
2023-03-25T00:44:40.608Z,21.48
2023-03-25T00:47:27.148Z,21.48
2023-03-25T00:50:13.247Z,21.48
2023-03-25T00:52:58.334Z,21.48
2023-03-25T00:55:43.642Z,21.48
2023-03-25T00:58:29.515Z,21.47
2023-03-25T01:01:18.335Z,21.47
2023-03-25T01:04:04.953Z,21.47
2023-03-25T01:06:53.630Z,21.47
2023-03-25T01:09:39.738Z,21.47
2023-03-25T01:12:27.083Z,21.46
2023-03-25T01:15:12.606Z,21.47
2023-03-25T01:17:59.412Z,21.47
2023-03-25T01:20:44.849Z,21.48
2023-03-25T01:23:30.294Z,21.47
2023-03-25T01:26:16.015Z,21.47
2023-03-25T01:29:01.684Z,21.46
2023-03-25T01:31:50.098Z,21.47
2023-03-25T01:34:38.835Z,21.48
2023-03-25T01:37:25.709Z,21.47
2023-03-25T01:40:18.129Z,21.48
2023-03-25T01:43:03.782Z,21.47
2023-03-25T01:45:51.974Z,21.47
2023-03-25T01:48:41.525Z,21.48
2023-03-25T01:51:33.750Z,21.48
2023-03-25T01:54:19.977Z,21.48
2023-03-25T01:57:08.746Z,21.47
2023-03-25T01:59:55.370Z,21.47
2023-03-25T02:02:41.365Z,21.47
2023-03-25T02:05:40.128Z,21.47
2023-03-25T02:08:26.219Z,21.48
2023-03-25T02:11:11.989Z,21.47
2023-03-25T02:14:02.330Z,21.47
2023-03-25T02:17:15.873Z,21.46
2023-03-25T02:20:29.347Z,21.47
2023-03-25T02:23:22.144Z,21.47
2023-03-25T02:26:29.872Z,21.46
2023-03-25T02:29:37.065Z,21.46
2023-03-25T02:32:41.631Z,21.46
2023-03-25T02:35:54.147Z,21.46
2023-03-25T02:38:49.700Z,21.45
2023-03-25T02:41:38.108Z,21.46
2023-03-25T02:44:56.799Z,21.46
2023-03-25T02:47:47.489Z,21.45
2023-03-25T02:50:43.767Z,21.45
2023-03-25T02:53:34.804Z,21.45
2023-03-25T02:56:25.567Z,21.46
2023-03-25T02:59:14.309Z,21.45
2023-03-25T03:02:04.785Z,21.46
2023-03-25T03:04:53.440Z,21.44
2023-03-25T03:07:44.651Z,21.45
2023-03-25T03:10:55.900Z,21.45
2023-03-25T03:14:04.676Z,21.45
2023-03-25T03:17:13.269Z,21.45
2023-03-25T03:20:21.397Z,21.44
2023-03-25T03:23:25.042Z,21.45
2023-03-25T03:26:38.373Z,21.45
2023-03-25T03:29:34.721Z,21.44
2023-03-25T03:32:36.672Z,21.44
2023-03-25T03:35:31.807Z,21.44
2023-03-25T03:38:21.418Z,21.45
2023-03-25T03:41:11.628Z,21.44
2023-03-25T03:44:02.831Z,21.44
2023-03-25T03:47:00.142Z,21.43
2023-03-25T03:49:52.415Z,21.44
2023-03-25T03:52:46.027Z,21.45
2023-03-25T03:55:44.789Z,21.43
2023-03-25T03:58:35.033Z,21.43
2023-03-25T04:01:46.208Z,21.42
2023-03-25T04:04:34.752Z,21.41
2023-03-25T04:07:27.897Z,21.42
2023-03-25T04:10:40.133Z,21.42
2023-03-25T04:13:30.254Z,21.41
2023-03-25T04:16:16.751Z,21.42
2023-03-25T04:19:03.368Z,21.41
2023-03-25T04:21:49.141Z,21.40
2023-03-25T04:24:37.866Z,21.40
2023-03-25T04:27:24.360Z,21.40
2023-03-25T04:30:11.819Z,21.39
2023-03-25T04:32:57.612Z,21.41
2023-03-25T04:35:43.266Z,21.42
2023-03-25T04:38:29.549Z,21.44
2023-03-25T04:41:15.872Z,21.46
2023-03-25T04:44:01.643Z,21.48
2023-03-25T04:46:47.689Z,21.51
2023-03-25T04:49:33.282Z,21.54
2023-03-25T04:52:18.793Z,21.58
2023-03-25T04:55:05.266Z,21.63
2023-03-25T04:57:52.460Z,21.66
2023-03-25T05:00:37.673Z,21.70
2023-03-25T05:03:24.411Z,21.70
2023-03-25T05:06:11.390Z,21.74
2023-03-25T05:08:56.662Z,21.77
2023-03-25T05:11:43.036Z,21.79
2023-03-25T05:14:28.490Z,21.82
2023-03-25T05:17:13.770Z,21.84
2023-03-25T05:19:59.157Z,21.87
2023-03-25T05:22:45.856Z,21.89
2023-03-25T05:25:34.424Z,21.92
2023-03-25T05:28:19.933Z,21.93
2023-03-25T05:31:08.515Z,21.95
2023-03-25T05:33:55.014Z,21.99
2023-03-25T05:36:40.610Z,22.00
2023-03-25T05:39:25.959Z,22.01
2023-03-25T05:42:12.586Z,22.05
2023-03-25T05:44:58.377Z,22.06
2023-03-25T05:47:44.317Z,22.07
2023-03-25T05:50:30.842Z,22.08
2023-03-25T05:53:16.449Z,22.10
2023-03-25T05:56:02.313Z,22.12
2023-03-25T05:58:48.984Z,22.12
2023-03-25T06:01:34.758Z,22.14
2023-03-25T06:04:21.875Z,22.15
2023-03-25T06:07:13.829Z,22.16
2023-03-25T06:09:59.532Z,22.16
2023-03-25T06:12:46.612Z,22.18
2023-03-25T06:15:39.198Z,22.16
2023-03-25T06:18:25.093Z,22.16
2023-03-25T06:21:11.626Z,22.18
2023-03-25T06:23:59.288Z,22.18
2023-03-25T06:26:44.717Z,22.19
2023-03-25T06:29:31.054Z,22.18
2023-03-25T06:32:16.572Z,22.19
2023-03-25T06:35:03.058Z,22.19
2023-03-25T06:37:49.963Z,22.17
2023-03-25T06:40:45.166Z,22.17
2023-03-25T06:43:32.050Z,22.17
2023-03-25T06:46:39.508Z,22.17
2023-03-25T06:49:46.846Z,22.17
2023-03-25T06:52:32.532Z,22.18
2023-03-25T06:55:19.482Z,22.18
2023-03-25T06:58:06.152Z,22.17
2023-03-25T07:00:54.958Z,22.20
2023-03-25T07:03:42.584Z,22.21
2023-03-25T07:06:31.409Z,22.22
2023-03-25T07:09:17.003Z,22.23
2023-03-25T07:12:02.477Z,22.24
2023-03-25T07:14:55.975Z,22.24
2023-03-25T07:17:43.148Z,22.27
2023-03-25T07:20:29.058Z,22.28
2023-03-25T07:23:15.120Z,22.29
2023-03-25T07:26:00.727Z,22.30
2023-03-25T07:28:48.047Z,22.30
2023-03-25T07:31:33.613Z,22.31
2023-03-25T07:34:19.016Z,22.32
2023-03-25T07:37:04.402Z,22.33
2023-03-25T07:39:49.846Z,22.33
2023-03-25T07:42:37.412Z,22.32
2023-03-25T07:45:44.133Z,22.32
2023-03-25T07:48:30.144Z,22.31
2023-03-25T07:51:16.093Z,22.33
2023-03-25T07:54:05.258Z,22.31
2023-03-25T07:56:52.890Z,22.33
2023-03-25T07:59:38.114Z,22.32
2023-03-25T08:02:23.810Z,22.34
2023-03-25T08:05:10.080Z,22.34
2023-03-25T08:07:55.962Z,22.35
2023-03-25T08:10:43.732Z,22.33
2023-03-25T08:13:29.978Z,22.32
2023-03-25T08:16:16.116Z,22.31
2023-03-25T08:19:01.406Z,22.32
2023-03-25T08:21:46.817Z,22.30
2023-03-25T08:24:32.990Z,22.30
2023-03-25T08:27:18.707Z,22.33
2023-03-25T08:30:05.641Z,22.36
2023-03-25T08:32:55.102Z,22.39
2023-03-25T08:35:41.046Z,22.42
2023-03-25T08:38:33.908Z,22.45
2023-03-25T08:41:21.165Z,22.47
2023-03-25T08:44:07.258Z,22.47
2023-03-25T08:46:52.477Z,22.47
2023-03-25T08:49:37.841Z,22.46
2023-03-25T08:52:23.128Z,22.48
2023-03-25T08:55:12.171Z,22.48
2023-03-25T08:58:02.130Z,22.47
2023-03-25T09:00:47.893Z,22.49
2023-03-25T09:03:33.458Z,22.49
2023-03-25T09:06:20.613Z,22.50
2023-03-25T09:09:11.582Z,22.52
2023-03-25T09:11:57.619Z,22.50
2023-03-25T09:14:43.055Z,22.52
2023-03-25T09:17:28.758Z,22.52
2023-03-25T09:20:14.746Z,22.53
2023-03-25T09:23:00.235Z,22.52
2023-03-25T09:25:46.386Z,22.50
2023-03-25T09:28:31.558Z,22.52
2023-03-25T09:31:16.972Z,22.49
2023-03-25T09:34:02.263Z,22.48
2023-03-25T09:36:47.948Z,22.48
2023-03-25T09:39:33.376Z,22.46
2023-03-25T09:42:44.959Z,22.47
2023-03-25T09:45:57.547Z,22.42
2023-03-25T09:48:47.386Z,22.42
2023-03-25T09:51:36.599Z,22.45
2023-03-25T09:54:38.758Z,22.48
2023-03-25T09:57:44.409Z,22.50
2023-03-25T10:00:31.087Z,22.49
2023-03-25T10:03:33.031Z,22.50
2023-03-25T10:06:21.180Z,22.50
2023-03-25T10:09:21.204Z,22.51
2023-03-25T10:12:30.287Z,22.54
2023-03-25T10:15:27.455Z,22.55
2023-03-25T10:18:32.993Z,22.56
2023-03-25T10:21:25.213Z,22.57
2023-03-25T10:24:18.441Z,22.59
2023-03-25T10:27:19.182Z,22.57
2023-03-25T10:30:28.014Z,22.61
2023-03-25T10:33:28.899Z,22.60
2023-03-25T10:36:19.265Z,22.61
2023-03-25T10:39:14.990Z,22.63
2023-03-25T10:42:12.881Z,22.62
2023-03-25T10:45:00.188Z,22.65
2023-03-25T10:47:47.473Z,22.65
2023-03-25T10:50:32.862Z,22.67
2023-03-25T10:53:24.332Z,22.68
2023-03-25T10:56:17.581Z,22.69
2023-03-25T10:59:58.069Z,22.71
2023-03-25T11:02:44.354Z,22.71
2023-03-25T11:05:30.189Z,22.73
2023-03-25T11:08:24.431Z,22.72
2023-03-25T11:11:10.883Z,22.73
2023-03-25T11:13:57.329Z,22.73
2023-03-25T11:16:57.241Z,22.73
2023-03-25T11:19:52.007Z,22.75
2023-03-25T11:22:38.913Z,22.75
2023-03-25T11:25:29.362Z,22.73
2023-03-25T11:28:35.633Z,22.74
2023-03-25T11:31:27.476Z,22.74
2023-03-25T11:34:13.134Z,22.75
2023-03-25T11:36:58.812Z,22.76
2023-03-25T11:39:49.882Z,22.75
2023-03-25T11:42:49.698Z,22.75
2023-03-25T11:45:40.220Z,22.74
2023-03-25T11:48:32.093Z,22.74
2023-03-25T11:51:25.110Z,22.75
2023-03-25T11:54:14.376Z,22.75
2023-03-25T11:56:59.754Z,22.75
2023-03-25T11:59:47.421Z,22.74
2023-03-25T12:02:40.803Z,22.74
2023-03-25T12:05:26.313Z,22.72
2023-03-25T12:08:16.828Z,22.73
2023-03-25T12:11:07.319Z,22.71
2023-03-25T12:14:23.737Z,22.71
2023-03-25T12:17:33.094Z,22.67
2023-03-25T12:20:31.759Z,22.62
2023-03-25T12:23:52.937Z,22.61
2023-03-25T12:27:26.171Z,22.62
2023-03-25T12:30:15.176Z,22.61
2023-03-25T12:33:00.768Z,22.60
2023-03-25T12:36:06.860Z,22.62
2023-03-25T12:39:42.820Z,22.62
2023-03-25T12:42:30.812Z,22.63
2023-03-25T12:45:28.255Z,22.58
2023-03-25T12:48:16.814Z,22.60
2023-03-25T12:51:11.383Z,22.60
2023-03-25T12:54:41.836Z,22.58
2023-03-25T12:57:42.423Z,22.57
2023-03-25T13:00:50.753Z,22.57
2023-03-25T13:04:08.653Z,22.57
2023-03-25T13:07:03.192Z,22.58
2023-03-25T13:10:13.924Z,22.58
2023-03-25T13:13:09.505Z,22.62
2023-03-25T13:16:16.283Z,22.62
2023-03-25T13:19:11.538Z,22.65
2023-03-25T13:22:02.376Z,22.67
2023-03-25T13:24:52.877Z,22.65
2023-03-25T13:27:42.490Z,22.62
2023-03-25T13:30:38.616Z,22.58
2023-03-25T13:33:28.419Z,22.60
2023-03-25T13:36:28.192Z,22.59
2023-03-25T13:39:22.134Z,22.59
2023-03-25T13:42:15.726Z,22.58
2023-03-25T13:45:05.486Z,22.59
2023-03-25T13:48:12.935Z,22.57
2023-03-25T13:51:03.334Z,22.58
2023-03-25T13:54:27.959Z,22.51
2023-03-25T13:57:29.549Z,22.52
2023-03-25T14:00:28.862Z,22.52
2023-03-25T14:03:33.029Z,22.51
2023-03-25T14:06:39.667Z,22.49
2023-03-25T14:09:37.742Z,22.46
2023-03-25T14:12:29.538Z,22.41
2023-03-25T14:15:27.449Z,22.43
2023-03-25T14:18:20.149Z,22.40
2023-03-25T14:21:22.489Z,22.39
2023-03-25T14:24:17.327Z,22.39
2023-03-25T14:27:05.822Z,22.37
2023-03-25T14:30:06.075Z,22.33
2023-03-25T14:32:52.037Z,22.31
2023-03-25T14:35:47.361Z,22.34
2023-03-25T14:38:53.840Z,22.31
2023-03-25T14:42:00.119Z,22.30
2023-03-25T14:44:49.935Z,22.24
2023-03-25T14:47:35.810Z,22.24
2023-03-25T14:50:21.248Z,22.21
2023-03-25T14:53:12.440Z,22.19
2023-03-25T14:56:02.325Z,22.24
2023-03-25T14:58:53.463Z,22.27
2023-03-25T15:01:41.079Z,22.28
2023-03-25T15:04:38.948Z,22.29
2023-03-25T15:07:46.012Z,22.33
2023-03-25T15:10:36.605Z,22.36
2023-03-25T15:13:29.098Z,22.38
2023-03-25T15:16:28.852Z,22.41
2023-03-25T15:19:18.937Z,22.42
2023-03-25T15:22:11.139Z,22.46
2023-03-25T15:25:00.988Z,22.47
2023-03-25T15:28:06.344Z,22.49
2023-03-25T15:31:03.544Z,22.49
2023-03-25T15:34:08.574Z,22.52
2023-03-25T15:37:13.935Z,22.50
2023-03-25T15:40:14.537Z,22.52
2023-03-25T15:43:29.611Z,22.51
2023-03-25T15:46:48.448Z,22.51
2023-03-25T15:49:42.981Z,22.52
2023-03-25T15:52:55.981Z,22.55
2023-03-25T15:55:53.651Z,22.55
2023-03-25T15:58:48.472Z,22.57
2023-03-25T16:01:39.339Z,22.57
2023-03-25T16:04:31.068Z,22.57
2023-03-25T16:07:19.835Z,22.59
2023-03-25T16:10:16.193Z,22.59
2023-03-25T16:13:23.374Z,22.61
2023-03-25T16:16:10.216Z,22.63
2023-03-25T16:18:56.061Z,22.62
2023-03-25T16:21:41.866Z,22.61
2023-03-25T16:24:33.902Z,22.61
2023-03-25T16:27:31.812Z,22.61
2023-03-25T16:30:22.930Z,22.62
2023-03-25T16:33:08.562Z,22.61
2023-03-25T16:35:59.545Z,22.65
2023-03-25T16:38:44.708Z,22.62
2023-03-25T16:41:30.828Z,22.62
2023-03-25T16:44:20.566Z,22.60
2023-03-25T16:47:06.585Z,22.61
2023-03-25T16:49:55.844Z,22.61
2023-03-25T16:52:42.813Z,22.60
2023-03-25T16:55:50.846Z,22.59
2023-03-25T16:58:48.087Z,22.54
2023-03-25T17:01:42.338Z,22.54
2023-03-25T17:04:44.382Z,22.54
2023-03-25T17:07:30.593Z,22.53
2023-03-25T17:10:23.752Z,22.54
2023-03-25T17:13:11.504Z,22.54
2023-03-25T17:15:57.436Z,22.50
2023-03-25T17:18:43.943Z,22.50
2023-03-25T17:21:32.789Z,22.51
2023-03-25T17:24:24.429Z,22.54
2023-03-25T17:27:25.294Z,22.55
2023-03-25T17:30:32.229Z,22.56
2023-03-25T17:33:35.209Z,22.56
2023-03-25T17:36:21.281Z,22.58
2023-03-25T17:39:20.682Z,22.58
2023-03-25T17:42:13.896Z,22.59
2023-03-25T17:44:59.225Z,22.61
2023-03-25T17:47:44.979Z,22.57
2023-03-25T17:50:33.115Z,22.58
2023-03-25T17:53:19.482Z,22.57
2023-03-25T17:56:06.079Z,22.56
2023-03-25T17:58:58.430Z,22.57
2023-03-25T18:01:46.201Z,22.59
2023-03-25T18:04:31.501Z,22.60
2023-03-25T18:07:21.124Z,22.59
2023-03-25T18:10:16.187Z,22.60
2023-03-25T18:13:01.599Z,22.59
2023-03-25T18:15:46.978Z,22.58
2023-03-25T18:18:32.426Z,22.58
2023-03-25T18:21:17.816Z,22.58
2023-03-25T18:24:03.252Z,22.60
2023-03-25T18:26:48.884Z,22.60
2023-03-25T18:29:37.455Z,22.61
2023-03-25T18:32:23.496Z,22.60
2023-03-25T18:35:09.340Z,22.62
2023-03-25T18:37:55.538Z,22.61
2023-03-25T18:40:41.497Z,22.63
2023-03-25T18:43:27.088Z,22.65
2023-03-25T18:46:14.338Z,22.64
2023-03-25T18:49:03.630Z,22.64
2023-03-25T18:51:50.642Z,22.65
2023-03-25T18:54:36.294Z,22.67
2023-03-25T18:57:23.983Z,22.70
2023-03-25T19:00:31.121Z,22.70
2023-03-25T19:03:18.259Z,22.73
2023-03-25T19:06:05.507Z,22.72
2023-03-25T19:08:52.616Z,22.75
2023-03-25T19:11:38.041Z,22.76
2023-03-25T19:14:23.901Z,22.77
2023-03-25T19:17:10.527Z,22.77
2023-03-25T19:19:56.623Z,22.78
2023-03-25T19:22:42.692Z,22.78
2023-03-25T19:25:29.233Z,22.78
2023-03-25T19:28:16.960Z,22.79
2023-03-25T19:31:04.017Z,22.79
2023-03-25T19:33:53.167Z,22.79
2023-03-25T19:36:39.287Z,22.81
2023-03-25T19:39:26.123Z,22.80
2023-03-25T19:42:12.657Z,22.83
2023-03-25T19:44:59.023Z,22.84
2023-03-25T19:47:45.958Z,22.84
2023-03-25T19:50:34.914Z,22.86
2023-03-25T19:53:21.282Z,22.84
2023-03-25T19:56:07.639Z,22.84
2023-03-25T19:58:53.765Z,22.84
2023-03-25T20:01:39.689Z,22.82
2023-03-25T20:04:26.587Z,22.86
2023-03-25T20:07:12.371Z,22.84
2023-03-25T20:10:04.360Z,22.88
2023-03-25T20:12:56.369Z,22.87
2023-03-25T20:15:42.204Z,22.88
2023-03-25T20:18:33.271Z,22.88
2023-03-25T20:21:20.245Z,22.87
2023-03-25T20:24:07.058Z,22.88
2023-03-25T20:26:53.235Z,22.89
2023-03-25T20:29:39.520Z,22.92
2023-03-25T20:32:37.699Z,22.90
2023-03-25T20:35:26.202Z,22.90
2023-03-25T20:38:15.978Z,22.90
2023-03-25T20:41:02.115Z,22.90
2023-03-25T20:43:48.348Z,22.92
2023-03-25T20:46:34.515Z,22.92
2023-03-25T20:49:22.590Z,22.92
2023-03-25T20:52:10.130Z,22.93
2023-03-25T20:54:57.158Z,22.93
2023-03-25T20:57:43.929Z,22.91
2023-03-25T21:00:29.872Z,22.93
2023-03-25T21:03:18.463Z,22.92
2023-03-25T21:06:13.489Z,22.94
2023-03-25T21:09:07.683Z,22.94
2023-03-25T21:11:53.321Z,22.93
2023-03-25T21:14:38.636Z,22.93
2023-03-25T21:17:23.995Z,22.92
2023-03-25T21:20:09.879Z,22.93
2023-03-25T21:22:57.485Z,22.91
2023-03-25T21:25:43.339Z,22.92
2023-03-25T21:28:32.047Z,22.89
2023-03-25T21:31:21.945Z,22.87
2023-03-25T21:34:07.127Z,22.84
2023-03-25T21:36:52.445Z,22.86
2023-03-25T21:39:37.997Z,22.83
2023-03-25T21:42:23.310Z,22.81
2023-03-25T21:45:11.526Z,22.81
2023-03-25T21:47:57.176Z,22.81
2023-03-25T21:50:42.332Z,22.78
2023-03-25T21:53:32.545Z,22.78
2023-03-25T21:56:20.369Z,22.76
2023-03-25T21:59:05.931Z,22.78
2023-03-25T22:01:53.253Z,22.77
2023-03-25T22:04:39.027Z,22.76
2023-03-25T22:07:24.635Z,22.74
2023-03-25T22:10:11.026Z,22.75
2023-03-25T22:12:57.164Z,22.75
2023-03-25T22:15:42.772Z,22.74
2023-03-25T22:18:28.768Z,22.75
2023-03-25T22:21:17.272Z,22.78
2023-03-25T22:24:04.076Z,22.76
2023-03-25T22:26:49.455Z,22.75
2023-03-25T22:29:35.160Z,22.76
2023-03-25T22:32:20.993Z,22.76
2023-03-25T22:35:06.880Z,22.76
2023-03-25T22:37:55.463Z,22.75
2023-03-25T22:40:40.865Z,22.75
2023-03-25T22:43:26.385Z,22.74
2023-03-25T22:46:12.649Z,22.75
2023-03-25T22:48:58.126Z,22.72
2023-03-25T22:51:44.055Z,22.71
2023-03-25T22:54:29.954Z,22.69
2023-03-25T22:57:15.844Z,22.66
2023-03-25T23:00:01.681Z,22.62
2023-03-25T23:02:47.698Z,22.59
2023-03-25T23:05:34.828Z,22.57
2023-03-25T23:08:21.879Z,22.54
2023-03-25T23:11:16.866Z,22.52
2023-03-25T23:14:09.798Z,22.49
2023-03-25T23:16:57.773Z,22.46
2023-03-25T23:19:43.209Z,22.44
2023-03-25T23:22:28.750Z,22.40
2023-03-25T23:25:14.290Z,22.38
2023-03-25T23:28:02.290Z,22.36
2023-03-25T23:30:48.118Z,22.35
2023-03-25T23:33:34.758Z,22.34
2023-03-25T23:36:20.908Z,22.31
2023-03-25T23:39:12.418Z,22.29
2023-03-25T23:41:58.129Z,22.27
2023-03-25T23:44:43.845Z,22.24
2023-03-25T23:47:29.522Z,22.21
2023-03-25T23:50:17.973Z,22.20
2023-03-25T23:53:03.433Z,22.17
2023-03-25T23:55:51.855Z,22.16
2023-03-25T23:58:37.977Z,22.15
